createdAt,value
2023-02-09T00:01:26.545Z,-2.40
2023-02-09T00:03:55.092Z,-2.40
2023-02-09T00:06:26.215Z,-2.40
2023-02-09T00:08:54.586Z,-2.40
2023-02-09T00:11:46.384Z,-2.40
2023-02-09T00:14:14.778Z,-2.30
2023-02-09T00:16:43.864Z,-2.30
2023-02-09T00:19:12.174Z,-2.30
2023-02-09T00:21:40.272Z,-2.30
2023-02-09T00:24:10.749Z,-2.30
2023-02-09T00:26:40.902Z,-2.30
2023-02-09T00:29:10.073Z,-2.30
2023-02-09T00:31:38.596Z,-2.30
2023-02-09T00:34:07.373Z,-2.30
2023-02-09T00:36:35.809Z,-2.30
2023-02-09T00:39:03.868Z,-2.30
2023-02-09T00:41:49.183Z,-2.30
2023-02-09T00:44:18.646Z,-2.30
2023-02-09T00:46:46.686Z,-2.30
2023-02-09T00:49:14.656Z,-2.40
2023-02-09T00:51:42.825Z,-2.40
2023-02-09T00:54:10.824Z,-2.40
2023-02-09T00:56:38.768Z,-2.40
2023-02-09T00:59:06.782Z,-2.40
2023-02-09T01:01:36.456Z,-2.40
2023-02-09T01:04:04.490Z,-2.40
2023-02-09T01:06:32.569Z,-2.40
2023-02-09T01:09:00.954Z,-2.40
2023-02-09T01:11:30.025Z,-2.40
2023-02-09T01:13:59.636Z,-2.40
2023-02-09T01:16:30.500Z,-2.40
2023-02-09T01:19:02.152Z,-2.40
2023-02-09T01:21:31.069Z,-2.40
2023-02-09T01:23:59.508Z,-2.40
2023-02-09T01:26:27.479Z,-2.40
2023-02-09T01:28:55.727Z,-2.40
2023-02-09T01:31:26.278Z,-2.40
2023-02-09T01:33:55.718Z,-2.40
2023-02-09T01:36:25.086Z,-2.40
2023-02-09T01:38:55.293Z,-2.40
2023-02-09T01:41:23.555Z,-2.40
2023-02-09T01:43:57.911Z,-2.40
2023-02-09T01:46:27.420Z,-2.40
2023-02-09T01:49:03.036Z,-2.40
2023-02-09T01:51:36.018Z,-2.40
2023-02-09T01:54:08.793Z,-2.40
2023-02-09T01:56:40.133Z,-2.40
2023-02-09T01:59:09.136Z,-2.40
2023-02-09T02:01:37.843Z,-2.40
2023-02-09T02:04:06.640Z,-2.50
2023-02-09T02:06:36.377Z,-2.50
2023-02-09T02:09:10.077Z,-2.50
2023-02-09T02:11:38.826Z,-2.50
2023-02-09T02:14:07.082Z,-2.50
2023-02-09T02:16:50.963Z,-2.50
2023-02-09T02:19:46.228Z,-2.50
2023-02-09T02:22:36.496Z,-2.50
2023-02-09T02:25:40.081Z,-2.50
2023-02-09T02:28:25.552Z,-2.60
2023-02-09T02:31:10.094Z,-2.60
2023-02-09T02:33:45.205Z,-2.60
2023-02-09T02:36:24.762Z,-2.70
2023-02-09T02:38:58.322Z,-2.70
2023-02-09T02:41:53.641Z,-2.70
2023-02-09T02:44:21.658Z,-2.70
2023-02-09T02:46:54.321Z,-2.70
2023-02-09T02:49:30.378Z,-2.80
2023-02-09T02:52:04.588Z,-2.80
2023-02-09T02:54:36.338Z,-2.80
2023-02-09T02:57:08.085Z,-2.80
2023-02-09T02:59:43.126Z,-2.80
2023-02-09T03:02:14.617Z,-2.90
2023-02-09T03:04:46.984Z,-2.90
2023-02-09T03:07:17.927Z,-2.90
2023-02-09T03:09:55.337Z,-3.00
2023-02-09T03:12:33.460Z,-3.00
2023-02-09T03:15:20.155Z,-3.00
2023-02-09T03:17:52.571Z,-3.10
2023-02-09T03:20:27.343Z,-3.10
2023-02-09T03:22:58.830Z,-3.10
2023-02-09T03:25:33.159Z,-3.10
2023-02-09T03:28:06.869Z,-3.10
2023-02-09T03:30:36.287Z,-3.20
2023-02-09T03:33:05.500Z,-3.20
2023-02-09T03:35:40.249Z,-3.20
2023-02-09T03:38:08.377Z,-3.20
2023-02-09T03:40:36.581Z,-3.20
2023-02-09T03:43:04.528Z,-3.20
2023-02-09T03:45:32.521Z,-3.20
2023-02-09T03:48:00.786Z,-3.20
2023-02-09T03:50:29.833Z,-3.20
2023-02-09T03:52:59.369Z,-3.20
2023-02-09T03:55:27.544Z,-3.30
2023-02-09T03:57:55.587Z,-3.30
2023-02-09T04:00:23.727Z,-3.30
2023-02-09T04:02:51.754Z,-3.30
2023-02-09T04:05:19.890Z,-3.40
2023-02-09T04:07:48.072Z,-3.40
2023-02-09T04:10:17.483Z,-3.40
2023-02-09T04:12:45.641Z,-3.40
2023-02-09T04:15:13.582Z,-3.40
2023-02-09T04:17:41.570Z,-3.40
2023-02-09T04:20:11.630Z,-3.40
2023-02-09T04:22:39.963Z,-3.40
2023-02-09T04:25:08.350Z,-3.40
2023-02-09T04:27:38.409Z,-3.40
2023-02-09T04:30:07.139Z,-3.50
2023-02-09T04:32:35.323Z,-3.50
2023-02-09T04:35:03.273Z,-3.50
2023-02-09T04:37:31.243Z,-3.50
2023-02-09T04:39:59.216Z,-3.50
2023-02-09T04:42:27.181Z,-3.50
2023-02-09T04:44:56.484Z,-3.50
2023-02-09T04:47:24.505Z,-3.50
2023-02-09T04:49:52.445Z,-3.50
2023-02-09T04:52:20.425Z,-3.50
2023-02-09T04:54:48.585Z,-3.50
2023-02-09T04:57:33.837Z,-3.50
2023-02-09T05:00:03.219Z,-3.60
2023-02-09T05:02:31.204Z,-3.60
2023-02-09T05:04:59.216Z,-3.60
2023-02-09T05:07:27.476Z,-3.60
2023-02-09T05:09:55.421Z,-3.60
2023-02-09T05:12:23.510Z,-3.70
2023-02-09T05:14:51.589Z,-3.70
2023-02-09T05:17:21.461Z,-3.70
2023-02-09T05:19:50.330Z,-3.70
2023-02-09T05:22:18.435Z,-3.80
2023-02-09T05:24:46.419Z,-3.80
2023-02-09T05:27:14.595Z,-3.80
2023-02-09T05:29:42.549Z,-3.80
2023-02-09T05:32:10.631Z,-3.80
2023-02-09T05:34:40.016Z,-3.80
2023-02-09T05:37:07.933Z,-3.80
2023-02-09T05:39:35.941Z,-3.80
2023-02-09T05:42:19.059Z,-3.90
2023-02-09T05:44:48.660Z,-3.90
2023-02-09T05:47:19.560Z,-3.90
2023-02-09T05:49:49.287Z,-3.90
2023-02-09T05:52:17.753Z,-3.80
2023-02-09T05:54:47.834Z,-4.00
2023-02-09T05:57:16.309Z,-3.80
2023-02-09T05:59:44.529Z,-3.80
2023-02-09T06:02:12.788Z,-3.80
2023-02-09T06:04:40.856Z,-3.80
2023-02-09T06:07:11.953Z,-3.90
2023-02-09T06:09:40.135Z,-3.80
2023-02-09T06:12:08.060Z,-3.80
2023-02-09T06:14:36.022Z,-3.90
2023-02-09T06:17:04.150Z,-3.90
2023-02-09T06:19:32.069Z,-3.90
2023-02-09T06:22:00.111Z,-3.90
2023-02-09T06:24:29.518Z,-3.90
2023-02-09T06:26:57.465Z,-3.90
2023-02-09T06:29:25.411Z,-3.90
2023-02-09T06:31:53.740Z,-4.00
2023-02-09T06:34:21.764Z,-4.00
2023-02-09T06:36:49.764Z,-4.00
2023-02-09T06:39:17.696Z,-4.00
2023-02-09T06:41:46.994Z,-4.00
2023-02-09T06:44:15.153Z,-4.00
2023-02-09T06:46:43.274Z,-4.00
2023-02-09T06:49:11.208Z,-3.90
2023-02-09T06:51:39.293Z,-3.90
2023-02-09T06:54:07.669Z,-3.80
2023-02-09T06:56:35.735Z,-3.80
2023-02-09T06:59:05.197Z,-3.70
2023-02-09T07:01:33.165Z,-3.80
2023-02-09T07:04:01.127Z,-3.70
2023-02-09T07:06:29.185Z,-3.70
2023-02-09T07:08:57.134Z,-3.70
2023-02-09T07:11:25.192Z,-3.70
2023-02-09T07:13:53.112Z,-3.70
2023-02-09T07:16:22.540Z,-3.70
2023-02-09T07:18:50.506Z,-3.60
2023-02-09T07:21:21.415Z,-3.60
2023-02-09T07:23:50.864Z,-3.60
2023-02-09T07:26:19.625Z,-3.60
2023-02-09T07:28:47.731Z,-3.60
2023-02-09T07:31:17.535Z,-3.50
2023-02-09T07:33:47.594Z,-3.50
2023-02-09T07:36:17.810Z,-3.40
2023-02-09T07:38:46.546Z,-3.40
2023-02-09T07:41:17.491Z,-3.30
2023-02-09T07:43:45.691Z,-3.30
2023-02-09T07:46:16.759Z,-3.20
2023-02-09T07:48:46.338Z,-3.20
2023-02-09T07:51:15.377Z,-3.10
2023-02-09T07:53:43.505Z,-3.10
2023-02-09T07:56:11.466Z,-3.00
2023-02-09T07:58:39.548Z,-3.00
2023-02-09T08:01:09.779Z,-3.00
2023-02-09T08:03:38.583Z,-2.90
2023-02-09T08:06:19.747Z,-2.90
2023-02-09T08:08:48.972Z,-2.80
2023-02-09T08:11:18.428Z,-2.80
2023-02-09T08:13:47.299Z,-2.70
2023-02-09T08:16:18.937Z,-2.70
2023-02-09T08:18:51.321Z,-2.60
2023-02-09T08:21:21.600Z,-2.50
2023-02-09T08:23:53.776Z,-2.50
2023-02-09T08:26:21.793Z,-2.50
2023-02-09T08:28:49.969Z,-2.40
2023-02-09T08:31:19.597Z,-2.40
2023-02-09T08:33:48.910Z,-2.30
2023-02-09T08:36:18.920Z,-2.30
2023-02-09T08:38:49.094Z,-2.20
2023-02-09T08:41:18.124Z,-2.10
2023-02-09T08:43:49.042Z,-2.00
2023-02-09T08:46:17.365Z,-2.00
2023-02-09T08:48:46.784Z,-1.90
2023-02-09T08:51:17.648Z,-1.90
2023-02-09T08:53:52.562Z,-1.80
2023-02-09T08:56:23.346Z,-1.80
2023-02-09T08:58:51.318Z,-1.70
2023-02-09T09:01:19.366Z,-1.70
2023-02-09T09:03:47.662Z,-1.60
2023-02-09T09:06:15.689Z,-1.50
2023-02-09T09:08:43.664Z,-1.50
2023-02-09T09:11:14.723Z,-1.40
2023-02-09T09:13:44.382Z,-1.40
2023-02-09T09:16:16.339Z,-1.30
2023-02-09T09:18:45.431Z,-1.20
2023-02-09T09:21:13.967Z,-1.20
2023-02-09T09:23:41.879Z,-1.10
2023-02-09T09:26:10.310Z,-1.20
2023-02-09T09:28:38.462Z,-1.10
2023-02-09T09:31:11.064Z,-1.00
2023-02-09T09:33:39.510Z,-0.90
2023-02-09T09:36:08.774Z,-0.90
2023-02-09T09:38:38.171Z,-0.80
2023-02-09T09:41:07.766Z,-0.80
2023-02-09T09:43:38.731Z,-0.80
2023-02-09T09:46:16.263Z,-0.70
2023-02-09T09:48:47.301Z,-0.70
2023-02-09T09:51:21.642Z,-0.60
2023-02-09T09:53:51.816Z,-0.60
2023-02-09T09:56:22.110Z,-0.50
2023-02-09T09:58:51.713Z,0.90
2023-02-09T10:01:23.411Z,-0.50
2023-02-09T10:03:51.458Z,-0.40
2023-02-09T10:06:21.388Z,-0.30
2023-02-09T10:08:55.075Z,-0.20
2023-02-09T10:11:28.634Z,-0.20
2023-02-09T10:13:58.080Z,0.00
2023-02-09T10:16:29.563Z,0.10
2023-02-09T10:18:58.932Z,0.20
2023-02-09T10:21:29.379Z,0.40
2023-02-09T10:24:12.530Z,0.60
2023-02-09T10:26:42.867Z,2.00
2023-02-09T10:29:24.564Z,1.10
2023-02-09T10:32:01.280Z,1.30
2023-02-09T10:34:34.423Z,3.70
2023-02-09T10:37:18.148Z,1.60
2023-02-09T10:39:47.486Z,1.80
2023-02-09T10:42:20.729Z,1.90
2023-02-09T10:44:51.284Z,2.00
2023-02-09T10:47:31.806Z,2.00
2023-02-09T10:50:09.093Z,1.90
2023-02-09T10:52:40.064Z,3.60
2023-02-09T10:55:17.297Z,1.60
2023-02-09T10:57:45.217Z,4.30
2023-02-09T11:00:34.793Z,1.50
2023-02-09T11:03:04.393Z,1.70
2023-02-09T11:05:34.992Z,1.80
2023-02-09T11:08:13.810Z,1.90
2023-02-09T11:10:46.149Z,2.00
2023-02-09T11:13:23.486Z,1.80
2023-02-09T11:16:25.565Z,1.70
2023-02-09T11:19:00.542Z,1.50
2023-02-09T11:21:39.007Z,1.40
2023-02-09T11:24:14.056Z,1.30
2023-02-09T11:26:48.762Z,1.20
2023-02-09T11:29:25.770Z,1.10
2023-02-09T11:32:19.786Z,1.00
2023-02-09T11:35:11.241Z,0.90
2023-02-09T11:37:48.662Z,0.80
2023-02-09T11:40:36.584Z,0.80
2023-02-09T11:43:15.584Z,0.80
2023-02-09T11:45:45.745Z,0.70
2023-02-09T11:48:18.686Z,0.70
2023-02-09T11:50:57.842Z,0.70
2023-02-09T11:53:33.014Z,0.60
2023-02-09T11:56:03.777Z,0.70
2023-02-09T11:58:44.093Z,0.60
2023-02-09T12:01:29.910Z,0.70
2023-02-09T12:04:06.070Z,0.80
2023-02-09T12:06:40.726Z,0.90
2023-02-09T12:09:28.048Z,1.10
2023-02-09T12:12:06.264Z,1.30
2023-02-09T12:14:59.536Z,1.50
2023-02-09T12:17:43.829Z,1.60
2023-02-09T12:20:30.968Z,1.80
2023-02-09T12:23:07.892Z,2.10
2023-02-09T12:25:51.569Z,2.30
2023-02-09T12:28:41.507Z,2.50
2023-02-09T12:31:13.267Z,2.70
2023-02-09T12:33:55.378Z,2.90
2023-02-09T12:36:30.173Z,2.90
2023-02-09T12:39:06.299Z,2.90
2023-02-09T12:42:07.632Z,3.50
2023-02-09T12:44:40.197Z,2.50
2023-02-09T12:47:41.719Z,2.30
2023-02-09T12:50:22.968Z,2.40
2023-02-09T12:53:43.558Z,2.80
2023-02-09T12:56:33.945Z,3.00
2023-02-09T12:59:18.401Z,3.30
2023-02-09T13:02:15.952Z,3.60
2023-02-09T13:05:00.172Z,3.70
2023-02-09T13:07:43.941Z,3.80
2023-02-09T13:10:25.581Z,3.90
2023-02-09T13:13:00.033Z,3.70
2023-02-09T13:15:34.400Z,3.70
2023-02-09T13:18:15.348Z,4.10
2023-02-09T13:21:10.113Z,4.20
2023-02-09T13:23:48.813Z,4.30
2023-02-09T13:26:23.083Z,4.40
2023-02-09T13:29:19.407Z,4.40
2023-02-09T13:31:57.342Z,4.40
2023-02-09T13:34:31.766Z,4.10
2023-02-09T13:37:10.931Z,4.40
2023-02-09T13:39:40.758Z,4.40
2023-02-09T13:42:21.200Z,4.40
2023-02-09T13:44:55.008Z,4.40
2023-02-09T13:47:23.559Z,4.70
2023-02-09T13:49:59.925Z,4.30
2023-02-09T13:52:32.942Z,4.20
2023-02-09T13:55:12.559Z,4.10
2023-02-09T13:57:43.481Z,4.10
2023-02-09T14:00:22.704Z,4.10
2023-02-09T14:02:54.628Z,4.10
2023-02-09T14:05:31.326Z,4.00
2023-02-09T14:07:59.652Z,4.00
2023-02-09T14:10:29.623Z,3.80
2023-02-09T14:13:02.884Z,3.80
2023-02-09T14:15:57.799Z,3.70
2023-02-09T14:18:32.131Z,3.70
2023-02-09T14:21:14.574Z,3.70
2023-02-09T14:23:44.603Z,3.60
2023-02-09T14:26:25.424Z,3.50
2023-02-09T14:28:56.148Z,3.50
2023-02-09T14:31:26.600Z,3.40
2023-02-09T14:33:57.561Z,3.30
2023-02-09T14:36:30.806Z,3.20
2023-02-09T14:39:11.025Z,3.10
2023-02-09T14:41:39.308Z,4.40
2023-02-09T14:44:20.475Z,3.00
2023-02-09T14:46:51.926Z,2.90
2023-02-09T14:49:21.025Z,2.90
2023-02-09T14:51:50.135Z,2.70
2023-02-09T14:54:24.897Z,2.70
2023-02-09T14:56:54.525Z,2.70
2023-02-09T14:59:23.761Z,2.60
2023-02-09T15:01:54.840Z,2.50
2023-02-09T15:04:23.267Z,2.30
2023-02-09T15:07:01.320Z,2.20
2023-02-09T15:09:34.983Z,2.10
2023-02-09T15:12:06.391Z,2.00
2023-02-09T15:14:38.978Z,1.80
2023-02-09T15:17:14.891Z,1.70
2023-02-09T15:19:43.057Z,1.60
2023-02-09T15:22:13.675Z,1.50
2023-02-09T15:24:42.459Z,1.40
2023-02-09T15:27:24.123Z,1.30
2023-02-09T15:29:52.620Z,1.30
2023-02-09T15:32:23.932Z,1.20
2023-02-09T15:34:52.830Z,1.10
2023-02-09T15:37:24.438Z,1.10
2023-02-09T15:39:55.767Z,1.00
2023-02-09T15:42:41.333Z,0.90
2023-02-09T15:45:37.156Z,0.90
2023-02-09T15:48:07.033Z,0.80
2023-02-09T15:50:36.542Z,0.70
2023-02-09T15:53:06.537Z,0.70
2023-02-09T15:55:36.224Z,0.60
2023-02-09T15:58:05.008Z,0.50
2023-02-09T16:00:32.959Z,0.50
2023-02-09T16:03:02.432Z,0.40
2023-02-09T16:05:31.830Z,0.30
2023-02-09T16:08:00.346Z,0.30
2023-02-09T16:10:30.584Z,0.20
2023-02-09T16:12:58.636Z,0.20
2023-02-09T16:15:28.127Z,0.10
2023-02-09T16:17:56.124Z,0.00
2023-02-09T16:20:26.006Z,0.00
2023-02-09T16:22:57.346Z,-0.10
2023-02-09T16:25:27.137Z,-0.20
2023-02-09T16:27:56.354Z,-0.30
2023-02-09T16:30:26.727Z,-0.30
2023-02-09T16:32:55.392Z,-0.10
2023-02-09T16:35:25.383Z,-0.50
2023-02-09T16:37:56.281Z,-0.50
2023-02-09T16:40:27.892Z,-0.50
2023-02-09T16:42:56.525Z,-0.50
2023-02-09T16:45:24.755Z,-0.50
2023-02-09T16:47:57.210Z,-0.60
2023-02-09T16:50:33.101Z,-0.60
2023-02-09T16:53:19.951Z,-0.60
2023-02-09T16:55:49.598Z,-0.60
2023-02-09T16:58:18.426Z,-0.60
2023-02-09T17:00:46.774Z,-0.60
2023-02-09T17:03:17.214Z,-0.60
2023-02-09T17:05:48.057Z,-0.50
2023-02-09T17:08:23.751Z,-0.50
2023-02-09T17:10:54.267Z,-0.50
2023-02-09T17:13:22.858Z,-0.50
2023-02-09T17:15:54.085Z,-0.50
2023-02-09T17:18:23.679Z,-0.50
2023-02-09T17:20:55.855Z,-0.50
2023-02-09T17:23:27.181Z,-0.50
2023-02-09T17:25:55.968Z,-0.50
2023-02-09T17:28:24.922Z,-0.50
2023-02-09T17:30:56.357Z,-0.50
2023-02-09T17:33:26.503Z,-0.30
2023-02-09T17:36:24.326Z,-0.50
2023-02-09T17:38:45.358Z,-0.50
2023-02-09T17:41:16.265Z,-0.50
2023-02-09T17:43:44.438Z,-0.50
2023-02-09T17:46:13.291Z,-0.60
2023-02-09T17:48:41.204Z,-0.60
2023-02-09T17:51:15.376Z,-0.60
2023-02-09T17:53:44.668Z,-0.60
2023-02-09T17:56:16.323Z,-0.60
2023-02-09T17:58:45.280Z,-0.50
2023-02-09T18:01:26.092Z,-0.50
2023-02-09T18:03:55.541Z,-0.50
2023-02-09T18:06:33.586Z,-0.50
2023-02-09T18:09:03.714Z,-0.50
2023-02-09T18:11:56.708Z,-0.50
2023-02-09T18:14:25.963Z,-0.50
2023-02-09T18:16:55.187Z,-0.50
2023-02-09T18:19:23.415Z,-0.50
2023-02-09T18:21:53.195Z,-0.50
2023-02-09T18:24:25.232Z,-0.50
2023-02-09T18:26:53.343Z,-0.50
2023-02-09T18:29:23.636Z,-0.50
2023-02-09T18:31:52.032Z,-0.50
2023-02-09T18:34:20.013Z,-0.40
2023-02-09T18:36:47.929Z,-0.40
2023-02-09T18:39:16.529Z,-0.40
2023-02-09T18:41:48.412Z,-0.40
2023-02-09T18:44:16.353Z,-0.40
2023-02-09T18:46:44.352Z,-0.40
2023-02-09T18:49:13.094Z,-0.40
2023-02-09T18:51:41.029Z,-0.40
2023-02-09T18:54:08.961Z,-0.40
2023-02-09T18:56:36.892Z,-0.40
2023-02-09T18:59:08.021Z,-0.40
2023-02-09T19:01:36.688Z,-0.40
2023-02-09T19:04:04.962Z,-0.40
2023-02-09T19:06:35.382Z,-0.40
2023-02-09T19:09:03.467Z,-0.40
2023-02-09T19:11:31.533Z,-0.30
2023-02-09T19:14:16.736Z,-0.30
2023-02-09T19:16:46.056Z,-0.30
2023-02-09T19:19:15.999Z,-0.30
2023-02-09T19:21:43.914Z,-0.30
2023-02-09T19:24:11.907Z,-0.20
2023-02-09T19:26:39.906Z,-0.20
2023-02-09T19:29:07.853Z,-0.20
2023-02-09T19:31:35.804Z,-0.10
2023-02-09T19:34:05.138Z,-0.10
2023-02-09T19:36:33.744Z,-0.10
2023-02-09T19:39:02.769Z,0.00
2023-02-09T19:41:30.696Z,0.00
2023-02-09T19:43:59.070Z,0.00
2023-02-09T19:46:27.072Z,0.10
2023-02-09T19:48:55.184Z,0.10
2023-02-09T19:51:24.596Z,0.10
2023-02-09T19:53:52.526Z,0.10
2023-02-09T19:56:23.394Z,0.10
2023-02-09T19:58:52.232Z,0.10
2023-02-09T20:01:20.649Z,0.10
2023-02-09T20:03:49.596Z,0.10
2023-02-09T20:06:17.994Z,0.10
2023-02-09T20:08:47.258Z,0.10
2023-02-09T20:11:19.106Z,0.10
2023-02-09T20:13:49.822Z,0.10
2023-02-09T20:16:20.139Z,0.10
2023-02-09T20:18:48.931Z,0.10
2023-02-09T20:21:17.979Z,0.10
2023-02-09T20:23:47.907Z,0.10
2023-02-09T20:26:18.421Z,0.10
2023-02-09T20:28:46.592Z,0.10
2023-02-09T20:31:18.675Z,0.00
2023-02-09T20:33:46.611Z,0.00
2023-02-09T20:36:14.856Z,0.00
2023-02-09T20:38:42.816Z,0.00
2023-02-09T20:41:14.965Z,0.00
2023-02-09T20:44:00.528Z,0.00
2023-02-09T20:46:56.698Z,0.00
2023-02-09T20:49:29.481Z,-0.10
2023-02-09T20:51:57.584Z,-0.10
2023-02-09T20:54:25.856Z,-0.10
2023-02-09T20:56:55.188Z,-0.10
2023-02-09T20:59:23.150Z,-0.10
2023-02-09T21:01:51.141Z,-0.20
2023-02-09T21:04:19.313Z,-0.20
2023-02-09T21:06:47.365Z,-0.20
2023-02-09T21:09:16.654Z,-0.20
2023-02-09T21:11:44.615Z,-0.20
2023-02-09T21:14:22.094Z,-0.20
2023-02-09T21:17:00.736Z,-0.30
2023-02-09T21:19:28.742Z,-0.30
2023-02-09T21:21:56.652Z,-0.30
2023-02-09T21:24:24.607Z,-0.30
2023-02-09T21:26:52.794Z,-0.30
2023-02-09T21:29:22.110Z,-0.30
2023-02-09T21:31:51.236Z,-0.30
2023-02-09T21:34:19.286Z,-0.40
2023-02-09T21:36:47.221Z,-0.40
2023-02-09T21:39:15.273Z,-0.40
2023-02-09T21:42:00.831Z,-0.40
2023-02-09T21:44:30.384Z,-0.40
2023-02-09T21:46:58.286Z,-0.40
2023-02-09T21:49:26.210Z,-0.40
2023-02-09T21:51:54.181Z,-0.50
2023-02-09T21:54:22.148Z,-0.50
2023-02-09T21:56:50.072Z,-0.50
2023-02-09T21:59:18.371Z,-0.50
2023-02-09T22:01:47.607Z,-0.50
2023-02-09T22:04:15.609Z,-0.50
2023-02-09T22:06:43.596Z,-0.50
2023-02-09T22:09:11.550Z,-0.50
2023-02-09T22:11:39.523Z,-0.50
2023-02-09T22:14:07.477Z,-0.50
2023-02-09T22:16:35.507Z,-0.50
2023-02-09T22:19:04.870Z,-0.50
2023-02-09T22:21:32.926Z,-0.60
2023-02-09T22:24:00.860Z,-0.60
2023-02-09T22:26:28.911Z,-0.60
2023-02-09T22:28:56.923Z,-0.60
2023-02-09T22:31:24.914Z,-0.60
2023-02-09T22:33:54.924Z,-0.60
2023-02-09T22:36:24.366Z,-0.60
2023-02-09T22:38:52.464Z,-0.60
2023-02-09T22:41:24.806Z,-0.70
2023-02-09T22:43:54.367Z,-0.60
2023-02-09T22:46:23.868Z,-0.60
2023-02-09T22:48:52.635Z,-0.60
2023-02-09T22:51:20.817Z,-0.60
2023-02-09T22:53:50.068Z,-0.60
2023-02-09T22:56:18.269Z,-0.60
2023-02-09T22:58:46.227Z,-0.60
2023-02-09T23:01:14.404Z,-0.60
2023-02-09T23:03:42.589Z,-0.60
2023-02-09T23:06:14.007Z,-0.60
2023-02-09T23:08:42.084Z,-0.60
2023-02-09T23:11:12.740Z,-0.60
2023-02-09T23:13:41.422Z,-0.60
2023-02-09T23:16:11.751Z,-0.60
2023-02-09T23:18:40.804Z,-0.60
2023-02-09T23:21:09.339Z,-0.60
2023-02-09T23:23:37.307Z,-0.60
2023-02-09T23:26:05.246Z,-0.60
2023-02-09T23:28:34.711Z,-0.60
2023-02-09T23:31:05.815Z,-0.70
2023-02-09T23:33:34.623Z,-0.70
2023-02-09T23:36:05.029Z,-0.70
2023-02-09T23:38:33.018Z,-0.70
2023-02-09T23:41:00.963Z,-0.70
2023-02-09T23:43:28.972Z,-0.70
2023-02-09T23:46:01.563Z,-0.70
2023-02-09T23:48:29.738Z,-0.70
2023-02-09T23:51:00.505Z,-0.70
2023-02-09T23:53:28.861Z,-0.70
2023-02-09T23:56:03.609Z,-0.70
2023-02-09T23:58:31.999Z,-0.70
